Time;durP1;ratioP1;P1;durP2;ratioP2;P2;SDS_P1;SDS_P2;PMS_P1;PMS_P2;Temp;Humidity;BMP_temperature;BMP_pressure;BME280_temperature;BME280_humidity;BME280_pressure;Samples;Min_cycle;Max_cycle;Signal;HPM_P1;HPM_P2
2023/01/25 00:04:19;;;;;;;;;;;5.90;99.90;;;;;;10277534;28;20032;-60
2023/01/25 00:09:38;;;;;;;19.85;9.95;;;5.90;99.90;;;;;;10268797;28;19992;-60
2023/01/25 00:14:57;;;;;;;;;;;5.90;99.90;;;;;;10271589;28;20177;-61
2023/01/25 00:20:16;;;;;;;20.83;10.05;;;5.80;99.90;;;;;;10275383;28;19906;-61
2023/01/25 00:25:35;;;;;;;;;;;5.80;99.90;;;;;;10272370;28;20079;-61
2023/01/25 00:30:59;;;;;;;19.60;9.57;;;5.80;99.90;;;;;;10271129;28;19910;-61
2023/01/25 00:36:40;;;;;;;22.40;10.93;;;5.80;99.90;;;;;;10274930;28;20031;-60
2023/01/25 00:42:00;;;;;;;19.42;10.07;;;5.80;99.90;;;;;;10275542;28;20030;-60
2023/01/25 00:47:19;;;;;;;20.23;10.15;;;5.80;99.90;;;;;;10273948;28;20499;-60
2023/01/25 00:52:38;;;;;;;17.85;9.88;;;5.80;99.90;;;;;;10273309;28;20418;-60
2023/01/25 00:57:58;;;;;;;18.98;10.00;;;5.80;99.90;;;;;;10270559;28;20461;-60
2023/01/25 01:03:17;;;;;;;19.50;10.23;;;5.80;99.90;;;;;;10271787;28;20459;-60
2023/01/25 01:08:39;;;;;;;;;;;5.80;99.90;;;;;;10271774;28;20026;-61
2023/01/25 01:13:59;;;;;;;18.30;9.45;;;5.80;99.90;;;;;;10266732;28;19922;-60
2023/01/25 01:19:18;;;;;;;;;;;5.80;99.90;;;;;;10269586;28;20035;-60
2023/01/25 01:24:38;;;;;;;19.15;10.05;;;5.80;99.90;;;;;;10272952;28;20138;-60
2023/01/25 01:29:57;;;;;;;18.08;9.95;;;5.90;99.90;;;;;;10268695;28;20456;-60
2023/01/25 01:35:16;;;;;;;20.13;9.93;;;5.80;99.90;;;;;;10266132;28;20969;-61
2023/01/25 01:40:35;;;;;;;;;;;5.80;99.90;;;;;;10271575;28;20027;-60
2023/01/25 01:45:56;;;;;;;17.88;9.27;;;5.80;99.90;;;;;;10271476;28;20378;-60
2023/01/25 01:51:16;;;;;;;15.95;8.40;;;5.80;99.90;;;;;;10267809;28;20031;-61
2023/01/25 01:56:50;;;;;;;19.45;10.60;;;5.80;99.90;;;;;;10271974;28;20030;-60
2023/01/25 02:02:10;;;;;;;18.52;10.20;;;6.10;99.90;;;;;;10266978;28;20042;-60
2023/01/25 02:07:35;;;;;;;17.92;9.82;;;5.80;99.90;;;;;;10269068;28;20027;-60
2023/01/25 02:12:57;;;;;;;20.48;10.32;;;5.80;99.90;;;;;;10276309;28;20499;-61
2023/01/25 02:18:17;;;;;;;20.20;9.77;;;5.80;99.90;;;;;;10265280;28;20039;-61
2023/01/25 02:24:04;;;;;;;19.15;10.05;;;5.80;99.90;;;;;;10268706;28;20488;-60
2023/01/25 02:29:25;;;;;;;17.85;8.98;;;6.00;99.90;;;;;;10267949;28;20027;-61
2023/01/25 02:34:44;;;;;;;19.33;9.88;;;5.80;99.90;;;;;;10262817;28;20030;-62
2023/01/25 02:40:04;;;;;;;18.58;9.75;;;5.70;99.90;;;;;;10267482;28;20468;-62
2023/01/25 02:45:28;;;;;;;20.70;10.40;;;5.70;99.90;;;;;;10270734;28;20039;-62
2023/01/25 02:50:47;;;;;;;22.25;11.07;;;5.80;99.90;;;;;;10277462;28;20023;-61
2023/01/25 02:56:06;;;;;;;;;;;5.70;99.90;;;;;;10279937;28;20027;-62
2023/01/25 03:01:26;;;;;;;20.35;10.05;;;5.70;99.90;;;;;;10273930;28;19917;-61
2023/01/25 03:06:45;;;;;;;21.33;10.57;;;5.70;99.90;;;;;;10268491;28;20027;-62
2023/01/25 03:12:04;;;;;;;23.35;10.75;;;5.70;99.90;;;;;;10270285;28;20492;-62
2023/01/25 03:17:23;;;;;;;16.20;9.02;;;5.70;99.90;;;;;;10268376;28;20051;-61
2023/01/25 03:22:42;;;;;;;20.35;10.20;;;5.70;99.90;;;;;;10275539;28;20042;-62
2023/01/25 03:28:01;;;;;;;17.52;9.18;;;5.70;99.90;;;;;;10276028;28;20516;-62
2023/01/25 03:33:20;;;;;;;;;;;5.70;99.90;;;;;;10275926;28;20034;-61
2023/01/25 03:38:40;;;;;;;18.25;9.38;;;5.70;99.90;;;;;;10275902;28;19946;-62
2023/01/25 03:43:59;;;;;;;18.67;9.80;;;5.70;99.90;;;;;;10270259;28;20038;-62
2023/01/25 03:49:18;;;;;;;20.20;10.40;;;5.70;99.90;;;;;;10280488;28;20125;-61
2023/01/25 03:54:37;;;;;;;22.85;10.07;;;5.70;99.90;;;;;;10273466;28;20460;-61
2023/01/25 03:59:56;;;;;;;;;;;5.70;99.90;;;;;;10273132;28;20039;-62
2023/01/25 04:05:15;;;;;;;20.08;9.70;;;5.70;99.90;;;;;;10269483;28;19946;-61
2023/01/25 04:10:35;;;;;;;19.80;9.88;;;5.70;99.90;;;;;;10276038;28;20016;-61
2023/01/25 04:15:54;;;;;;;20.60;9.82;;;5.70;99.90;;;;;;10267795;28;20030;-61
2023/01/25 04:21:13;;;;;;;22.02;10.27;;;5.70;99.90;;;;;;10265811;28;20035;-61
2023/01/25 04:26:32;;;;;;;;;;;5.70;99.90;;;;;;10274534;28;20476;-61
2023/01/25 04:31:51;;;;;;;17.83;9.70;;;5.70;99.90;;;;;;10272737;28;19906;-61
2023/01/25 04:37:10;;;;;;;20.60;10.25;;;5.60;99.90;;;;;;10274816;28;20399;-61
2023/01/25 04:42:29;;;;;;;;;;;5.60;99.90;;;;;;10268207;28;20587;-61
2023/01/25 04:47:49;;;;;;;17.95;8.98;;;5.60;99.90;;;;;;10273494;28;19914;-61
2023/01/25 04:53:10;;;;;;;19.48;9.70;;;5.60;99.90;;;;;;10270589;28;20031;-62
2023/01/25 04:58:29;;;;;;;18.73;9.57;;;5.60;99.90;;;;;;10267904;28;20074;-61
2023/01/25 05:03:49;;;;;;;;;;;5.60;99.90;;;;;;10270417;28;20023;-61
2023/01/25 05:09:09;;;;;;;20.70;9.60;;;5.60;99.90;;;;;;10268158;28;19993;-61
2023/01/25 05:14:28;;;;;;;22.05;9.63;;;5.60;99.90;;;;;;10270477;28;20488;-60
2023/01/25 05:19:47;;;;;;;;;;;5.60;99.90;;;;;;10260983;28;20034;-60
2023/01/25 05:26:59;;;;;;;19.90;9.57;;;5.60;99.90;;;;;;10272557;28;19922;-61
2023/01/25 05:30:46;;;;;;;20.45;9.60;;;5.60;99.90;;;;;;10268599;28;20218;-61
2023/01/25 05:36:06;;;;;;;19.27;9.70;;;5.60;99.90;;;;;;10268769;28;20386;-61
2023/01/25 05:41:25;;;;;;;20.20;9.85;;;5.60;99.90;;;;;;10264942;28;20027;-61
2023/01/25 05:46:44;;;;;;;;;;;5.60;99.90;;;;;;10268953;28;20606;-61
2023/01/25 05:52:03;;;;;;;19.40;9.45;;;5.60;99.90;;;;;;10267714;28;20046;-62
2023/01/25 05:57:22;;;;;;;;;;;5.60;99.90;;;;;;10275211;28;20035;-61
2023/01/25 06:02:41;;;;;;;18.30;8.80;;;5.60;99.90;;;;;;10258954;28;19915;-61
2023/01/25 06:08:00;;;;;;;;;;;5.60;99.90;;;;;;10271448;28;20031;-61
2023/01/25 06:13:21;;;;;;;19.25;9.45;;;5.60;99.90;;;;;;10273524;28;19950;-61
2023/01/25 06:18:40;;;;;;;20.23;9.05;;;5.60;99.90;;;;;;10269305;28;20047;-61
2023/01/25 06:23:59;;;;;;;18.85;9.30;;;5.60;99.90;;;;;;10268620;28;20058;-62
2023/01/25 06:29:18;;;;;;;;;;;5.60;99.90;;;;;;10273362;28;20032;-61
2023/01/25 06:34:38;;;;;;;21.65;9.88;;;5.50;99.90;;;;;;10277684;28;19989;-61
2023/01/25 06:39:57;;;;;;;22.05;9.93;;;5.50;99.90;;;;;;10279360;28;20034;-61
2023/01/25 06:45:16;;;;;;;18.92;8.68;;;5.50;99.90;;;;;;10275618;28;20046;-61
2023/01/25 06:50:35;;;;;;;;;;;5.50;99.90;;;;;;10278405;28;20051;-60
2023/01/25 06:56:03;;;;;;;20.13;8.82;;;5.50;99.90;;;;;;10275549;28;19906;-61
2023/01/25 07:01:26;;;;;;;19.70;8.75;;;5.50;99.90;;;;;;10271436;28;20249;-61
2023/01/25 07:06:45;;;;;;;18.88;9.32;;;5.50;99.90;;;;;;10283369;28;20031;-61
2023/01/25 07:12:04;;;;;;;;;;;5.50;99.90;;;;;;10279215;28;20027;-61
2023/01/25 07:17:24;;;;;;;;;;;5.50;99.90;;;;;;10281153;28;20001;-61
2023/01/25 07:22:43;;;;;;;19.92;9.13;;;5.50;99.90;;;;;;10267781;28;19921;-61
2023/01/25 07:28:02;;;;;;;21.70;9.32;;;5.50;99.90;;;;;;10275527;28;20027;-61
2023/01/25 07:33:21;;;;;;;20.55;9.07;;;5.50;99.90;;;;;;10273187;28;20106;-61
2023/01/25 07:38:41;;;;;;;19.63;9.57;;;5.50;99.90;;;;;;10264889;28;20023;-61
2023/01/25 07:44:00;;;;;;;17.02;8.65;;;5.50;99.90;;;;;;10268777;28;20066;-60
2023/01/25 07:49:19;;;;;;;19.45;9.40;;;5.50;99.90;;;;;;10270042;28;20471;-63
2023/01/25 07:54:38;;;;;;;;;;;5.50;99.90;;;;;;10273607;28;20031;-62
2023/01/25 07:59:57;;;;;;;18.45;9.48;;;5.50;99.90;;;;;;10261506;28;20119;-62
2023/01/25 08:05:17;;;;;;;;;;;5.50;99.90;;;;;;10254743;28;20056;-62
2023/01/25 08:10:37;;;;;;;19.48;8.77;;;5.40;99.90;;;;;;10253236;28;19907;-62
2023/01/25 08:15:56;;;;;;;20.33;8.98;;;5.80;99.90;;;;;;10257395;28;20042;-62
2023/01/25 08:21:15;;;;;;;18.92;8.90;;;5.40;99.90;;;;;;10251202;28;20027;-62
2023/01/25 08:26:35;;;;;;;18.70;9.23;;;5.80;99.90;;;;;;10257698;28;20106;-62
2023/01/25 08:31:54;;;;;;;20.10;9.40;;;5.40;99.90;;;;;;10268457;28;20055;-62
2023/01/25 08:37:14;;;;;;;;;;;5.40;99.90;;;;;;10269044;28;20484;-61
2023/01/25 08:42:33;;;;;;;;;;;6.00;99.90;;;;;;10274438;28;19953;-61
2023/01/25 08:47:52;;;;;;;15.95;8.25;;;6.90;99.90;;;;;;10267617;28;19909;-61
2023/01/25 08:53:11;;;;;;;;;;;5.50;99.90;;;;;;10271731;28;20106;-61
2023/01/25 08:58:31;;;;;;;17.35;8.43;;;5.60;99.90;;;;;;10272452;28;20220;-61
2023/01/25 09:03:50;;;;;;;17.55;8.32;;;5.70;99.90;;;;;;10265970;28;20030;-61
2023/01/25 09:09:11;;;;;;;19.50;8.68;;;5.50;99.90;;;;;;10269792;28;20108;-62
2023/01/25 09:14:31;;;;;;;17.70;8.70;;;5.50;99.90;;;;;;10269252;28;20132;-64
2023/01/25 09:19:50;;;;;;;16.30;8.45;;;5.40;99.90;;;;;;10272699;28;20452;-63
2023/01/25 09:25:09;;;;;;;20.20;8.90;;;5.50;99.90;;;;;;10274071;28;20105;-65
2023/01/25 09:30:28;;;;;;;;;;;5.60;99.90;;;;;;10275454;28;20039;-60
2023/01/25 09:35:48;;;;;;;18.27;8.02;;;5.70;99.90;;;;;;10275402;28;19913;-60
2023/01/25 09:41:25;;;;;;;16.67;8.07;;;5.80;99.90;;;;;;10275587;28;20054;-60
2023/01/25 09:46:57;;;;;;;22.10;8.23;;;5.80;99.90;;;;;;10273730;28;20039;-66
2023/01/25 09:52:56;;;;;;;16.60;8.10;;;5.90;99.90;;;;;;10272274;28;20066;-62
2023/01/25 09:58:28;;;;;;;18.38;7.90;;;5.80;99.90;;;;;;10273283;28;20035;-63
2023/01/25 10:03:53;;;;;;;17.38;8.05;;;5.80;99.90;;;;;;10273370;28;20438;-63
2023/01/25 10:09:18;;;;;;;18.77;8.63;;;5.80;99.90;;;;;;10269073;28;20027;-68
2023/01/25 10:14:20;;;;;;;16.38;7.85;;;5.80;99.90;;;;;;10251117;28;20414;-68
2023/01/25 10:19:46;;;;;;;20.17;8.85;;;5.80;99.90;;;;;;10260027;28;20042;-66
2023/01/25 10:25:17;;;;;;;18.17;8.25;;;5.70;99.90;;;;;;10256804;28;20031;-67
2023/01/25 10:30:43;;;;;;;19.63;8.85;;;5.70;99.90;;;;;;10260687;28;20491;-67
2023/01/25 10:35:48;;;;;;;17.13;8.35;;;5.70;99.90;;;;;;10253329;28;20109;-67
2023/01/25 10:41:15;;;;;;;17.33;8.45;;;5.70;99.90;;;;;;10260151;28;20287;-65
2023/01/25 10:46:24;;;;;;;16.33;7.70;;;5.70;99.90;;;;;;10260543;28;20051;-66
2023/01/25 10:51:34;;;;;;;20.20;8.95;;;5.80;99.90;;;;;;10265079;28;20015;-66
2023/01/25 10:56:38;;;;;;;19.40;9.02;;;5.70;99.90;;;;;;10270481;28;20027;-63
2023/01/25 11:01:39;;;;;;;23.20;8.10;;;5.70;99.90;;;;;;10283028;28;20175;-62
2023/01/25 11:06:48;;;;;;;17.50;8.55;;;5.80;99.90;;;;;;10265588;28;20077;-59
2023/01/25 11:11:57;;;;;;;22.00;8.40;;;5.80;99.90;;;;;;10273768;28;20501;-63
2023/01/25 11:17:00;;;;;;;20.15;8.65;;;5.80;99.90;;;;;;10261791;28;20039;-61
2023/01/25 11:22:23;;;;;;;17.58;8.13;;;5.80;99.90;;;;;;10279634;28;20495;-60
2023/01/25 11:27:26;;;;;;;20.92;9.07;;;5.70;99.90;;;;;;10278325;28;20409;-59
2023/01/25 11:32:26;;;;;;;18.92;8.77;;;5.70;99.90;;;;;;10274381;28;20031;-60
2023/01/25 11:37:40;;;;;;;16.27;7.85;;;5.70;99.90;;;;;;10279067;28;20023;-61
2023/01/25 11:42:58;;;;;;;18.98;8.25;;;5.60;99.90;;;;;;10272775;28;20035;-61
2023/01/25 11:48:08;;;;;;;20.60;8.63;;;5.60;99.90;;;;;;10281137;28;20015;-62
2023/01/25 11:53:33;;;;;;;18.77;7.85;;;5.60;99.90;;;;;;10275959;28;20455;-61
2023/01/25 11:58:39;;;;;;;19.85;9.00;;;5.60;99.90;;;;;;10278518;28;20597;-63
2023/01/25 12:04:22;;;;;;;19.92;8.88;;;5.60;99.90;;;;;;10271311;28;20432;-63
2023/01/25 12:09:56;;;;;;;20.48;9.23;;;5.60;99.90;;;;;;10270788;28;20357;-64
2023/01/25 12:14:57;;;;;;;22.75;8.27;;;5.50;99.90;;;;;;10276453;28;20241;-64
2023/01/25 12:20:30;;;;;;;21.77;8.20;;;5.60;99.90;;;;;;10275415;28;20049;-62
2023/01/25 12:26:08;;;;;;;21.70;9.07;;;5.60;99.90;;;;;;10276705;28;20035;-65
2023/01/25 12:31:18;;;;;;;25.23;9.73;;;5.60;99.90;;;;;;10271295;28;20027;-61
2023/01/25 12:36:36;;;;;;;19.88;9.00;;;5.60;99.90;;;;;;10270314;28;20039;-60
2023/01/25 12:41:56;;;;;;;23.77;9.17;;;5.60;99.90;;;;;;10278310;28;20031;-60
2023/01/25 12:47:05;;;;;;;21.63;8.98;;;5.80;99.90;;;;;;10278100;28;20396;-60
2023/01/25 12:52:17;;;;;;;19.83;8.60;;;5.60;99.90;;;;;;10259011;28;20030;-60
2023/01/25 12:57:37;;;;;;;24.15;9.50;;;5.50;99.90;;;;;;10274731;28;20022;-61
2023/01/25 13:02:50;;;;;;;19.70;8.57;;;5.50;99.90;;;;;;10276597;28;20030;-61
2023/01/25 13:08:02;;;;;;;19.92;8.98;;;5.50;99.90;;;;;;10274447;28;20022;-61
2023/01/25 13:13:21;;;;;;;22.35;9.32;;;5.50;99.90;;;;;;10272609;28;20057;-59
2023/01/25 13:18:28;;;;;;;21.65;9.13;;;6.80;99.90;;;;;;10273204;28;20491;-61
2023/01/25 13:23:35;;;;;;;20.55;7.95;;;5.40;99.90;;;;;;10274404;28;20039;-61
2023/01/25 13:28:45;;;;;;;19.75;8.25;;;5.40;99.90;;;;;;10269147;28;20085;-61
2023/01/25 13:33:46;;;;;;;20.50;8.85;;;5.40;99.90;;;;;;10273215;28;20022;-61
2023/01/25 13:38:46;;;;;;;19.30;8.35;;;5.40;99.90;;;;;;10269620;28;20015;-61
2023/01/25 13:43:53;;;;;;;19.15;8.75;;;5.40;99.90;;;;;;10273899;28;20498;-61
2023/01/25 13:49:01;;;;;;;20.88;8.25;;;5.40;99.90;;;;;;10270636;28;20015;-61
2023/01/25 13:54:02;;;;;;;21.10;9.07;;;5.40;99.90;;;;;;10276663;28;20019;-61
2023/01/25 13:59:03;;;;;;;19.92;8.82;;;5.40;99.90;;;;;;10275039;28;20026;-61
2023/01/25 14:04:04;;;;;;;22.02;9.30;;;5.40;99.90;;;;;;10272443;28;20034;-61
2023/01/25 14:09:18;;;;;;;18.90;8.10;;;5.40;99.90;;;;;;10271398;28;20015;-61
2023/01/25 14:14:19;;;;;;;20.55;8.13;;;5.30;99.90;;;;;;10269549;28;20038;-60
2023/01/25 14:19:28;;;;;;;20.85;8.50;;;5.30;99.90;;;;;;10270688;28;20018;-61
2023/01/25 14:24:29;;;;;;;20.88;8.43;;;5.40;99.90;;;;;;10274320;28;20513;-60
2023/01/25 14:29:34;;;;;;;20.15;8.95;;;5.40;99.90;;;;;;10271314;28;20110;-60
2023/01/25 14:34:34;;;;;;;21.58;8.40;;;5.30;99.90;;;;;;10259444;28;20051;-59
2023/01/25 14:39:35;;;;;;;21.98;8.60;;;5.40;99.90;;;;;;10259877;28;20114;-60
2023/01/25 14:44:36;;;;;;;21.80;8.60;;;5.30;99.90;;;;;;10257808;28;20085;-60
2023/01/25 14:49:36;;;;;;;21.45;8.75;;;5.60;99.90;;;;;;10259396;28;20074;-59
2023/01/25 14:54:56;;;;;;;21.48;8.85;;;5.80;99.90;;;;;;10262807;28;20023;-60
2023/01/25 14:59:58;;;;;;;25.83;9.25;;;5.30;99.90;;;;;;10269823;28;20498;-61
2023/01/25 15:05:02;;;;;;;22.27;9.70;;;5.30;99.90;;;;;;10259061;28;20035;-61
2023/01/25 15:10:18;;;;;;;23.35;9.13;;;5.30;99.90;;;;;;10260692;28;20037;-61
2023/01/25 15:15:21;;;;;;;25.45;9.52;;;5.00;99.90;;;;;;10268795;28;20027;-62
2023/01/25 15:20:25;;;;;;;25.50;9.40;;;5.30;99.90;;;;;;10254585;28;20019;-61
2023/01/25 15:25:26;;;;;;;23.55;8.75;;;5.30;99.90;;;;;;10259087;28;20111;-62
2023/01/25 15:30:27;;;;;;;25.35;9.75;;;5.50;99.90;;;;;;10258747;28;20464;-61
2023/01/25 15:35:27;;;;;;;25.90;10.23;;;5.30;99.90;;;;;;10258958;28;20038;-61
2023/01/25 15:40:28;;;;;;;28.98;11.50;;;5.20;99.90;;;;;;10255733;28;20540;-61
2023/01/25 15:45:28;;;;;;;29.23;11.20;;;6.00;99.90;;;;;;10262900;28;20089;-59
2023/01/25 15:50:29;;;;;;;26.42;10.65;;;6.70;99.90;;;;;;10262336;28;20097;-61
2023/01/25 15:55:30;;;;;;;26.90;9.85;;;5.20;99.90;;;;;;10275536;28;20431;-59
2023/01/25 16:00:32;;;;;;;28.27;11.48;;;5.20;99.90;;;;;;10270394;28;20419;-59
2023/01/25 16:05:33;;;;;;;28.77;10.38;;;5.20;99.90;;;;;;10261625;28;20182;-60
2023/01/25 16:10:33;;;;;;;28.42;10.38;;;5.20;99.90;;;;;;10271667;28;20019;-60
2023/01/25 16:15:36;;;;;;;25.65;9.63;;;6.20;99.90;;;;;;10272538;28;20476;-59
2023/01/25 16:20:36;;;;;;;30.02;9.65;;;5.20;99.90;;;;;;10263700;28;20034;-59
2023/01/25 16:25:39;;;;;;;26.55;11.23;;;5.20;99.90;;;;;;10270736;28;20037;-59
2023/01/25 16:30:40;;;;;;;29.63;10.40;;;5.20;99.90;;;;;;10273890;28;20049;-59
2023/01/25 16:35:43;;;;;;;34.95;11.00;;;5.20;99.90;;;;;;10272849;28;20030;-67
2023/01/25 16:40:45;;;;;;;28.55;10.68;;;5.20;99.90;;;;;;10271715;28;20109;-59
2023/01/25 16:45:45;;;;;;;34.55;11.43;;;5.20;99.90;;;;;;10275877;28;20031;-59
2023/01/25 16:50:49;;;;;;;35.33;11.02;;;5.10;99.90;;;;;;10269647;28;20022;-60
2023/01/25 16:55:50;;;;;;;35.45;11.95;;;5.10;99.90;;;;;;10270322;28;20018;-60
2023/01/25 17:00:51;;;;;;;30.70;11.35;;;5.10;99.90;;;;;;10262422;28;20026;-62
2023/01/25 17:05:51;;;;;;;39.80;13.95;;;5.00;99.90;;;;;;10273781;28;20034;-59
2023/01/25 17:10:56;;;;;;;34.38;11.75;;;5.00;99.90;;;;;;10257995;28;20019;-59
2023/01/25 17:15:56;;;;;;;39.03;13.35;;;5.00;99.90;;;;;;10267787;28;20038;-60
2023/01/25 17:21:04;;;;;;;37.95;12.85;;;5.00;99.90;;;;;;10268410;28;20415;-59
2023/01/25 17:26:07;;;;;;;33.28;12.18;;;6.00;99.90;;;;;;10270912;28;20095;-59
2023/01/25 17:31:20;;;;;;;41.75;14.32;;;5.00;99.90;;;;;;10271419;28;20594;-59
2023/01/25 17:36:21;;;;;;;43.05;13.73;;;5.00;99.90;;;;;;10269990;28;20058;-60
2023/01/25 17:41:22;;;;;;;37.35;13.23;;;5.00;99.90;;;;;;10272482;28;20119;-59
2023/01/25 17:46:26;;;;;;;40.08;13.23;;;5.10;99.90;;;;;;10271234;28;20035;-59
2023/01/25 17:51:27;;;;;;;44.83;13.40;;;5.40;99.90;;;;;;10271391;28;20018;-59
2023/01/25 17:56:28;;;;;;;41.70;14.98;;;5.10;99.90;;;;;;10268505;28;20477;-59
2023/01/25 18:01:30;;;;;;;44.22;14.57;;;5.70;99.90;;;;;;10262333;28;20023;-59
2023/01/25 18:06:31;;;;;;;38.20;13.45;;;5.50;99.90;;;;;;10262028;28;20073;-59
2023/01/25 18:11:33;;;;;;;44.10;15.02;;;6.50;99.90;;;;;;10262619;28;20511;-59
2023/01/25 18:16:36;;;;;;;39.40;14.23;;;5.10;99.90;;;;;;10262709;28;20210;-59
2023/01/25 18:21:37;;;;;;;50.15;16.00;;;5.20;99.90;;;;;;10275940;28;20046;-59
2023/01/25 18:26:38;;;;;;;39.45;13.80;;;5.20;99.90;;;;;;10282073;28;20537;-59
2023/01/25 18:31:38;;;;;;;42.20;14.80;;;5.50;99.90;;;;;;10271700;28;20262;-60
2023/01/25 18:36:39;;;;;;;43.25;14.63;;;5.20;99.90;;;;;;10277255;28;20110;-60
2023/01/25 18:41:39;;;;;;;43.70;14.15;;;5.10;99.90;;;;;;10273935;28;20127;-60
2023/01/25 18:46:41;;;;;;;36.78;13.98;;;6.20;99.90;;;;;;10262056;28;20030;-60
2023/01/25 18:51:43;;;;;;;40.60;14.27;;;5.30;99.90;;;;;;10262333;28;20443;-60
2023/01/25 18:56:45;;;;;;;39.65;15.20;;;5.10;99.90;;;;;;10274728;28;20037;-59
2023/01/25 19:01:45;;;;;;;38.65;13.93;;;5.40;99.90;;;;;;10275956;28;20023;-60
2023/01/25 19:06:46;;;;;;;42.75;13.93;;;5.00;99.90;;;;;;10264790;28;20041;-60
2023/01/25 19:11:47;;;;;;;43.15;14.75;;;5.10;99.90;;;;;;10261793;28;20503;-59
2023/01/25 19:16:48;;;;;;;42.08;14.70;;;5.00;99.90;;;;;;10257476;28;20030;-60
2023/01/25 19:21:48;;;;;;;39.95;15.35;;;5.50;99.90;;;;;;10268015;28;20027;-59
2023/01/25 19:26:49;;;;;;;39.90;13.80;;;5.00;99.90;;;;;;10275088;28;20081;-60
2023/01/25 19:31:50;;;;;;;40.35;13.82;;;5.00;99.90;;;;;;10276027;28;20406;-59
2023/01/25 19:36:52;;;;;;;40.05;14.15;;;5.00;99.90;;;;;;10280001;28;20023;-59
2023/01/25 19:41:53;;;;;;;41.65;13.60;;;5.00;99.90;;;;;;10269807;28;20030;-60
2023/01/25 19:46:54;;;;;;;40.72;14.57;;;5.00;99.90;;;;;;10262962;28;20034;-59
2023/01/25 19:51:54;;;;;;;40.38;13.75;;;4.90;99.90;;;;;;10267889;28;20511;-59
2023/01/25 19:56:57;;;;;;;36.13;13.15;;;5.00;99.90;;;;;;10273849;28;20440;-60
2023/01/25 20:01:57;;;;;;;39.65;13.57;;;4.90;99.90;;;;;;10276601;28;20045;-60
2023/01/25 20:06:58;;;;;;;41.33;15.13;;;4.90;99.90;;;;;;10276719;28;20454;-60
2023/01/25 20:12:01;;;;;;;37.22;14.23;;;4.90;99.90;;;;;;10270624;28;20042;-60
2023/01/25 20:17:02;;;;;;;46.15;15.77;;;4.90;99.90;;;;;;10275278;28;20105;-60
2023/01/25 20:22:03;;;;;;;39.08;14.07;;;4.90;99.90;;;;;;10275031;28;20534;-60
2023/01/25 20:27:04;;;;;;;39.95;13.27;;;4.10;99.90;;;;;;10270240;28;20038;-60
2023/01/25 20:32:04;;;;;;;39.15;14.73;;;4.90;99.90;;;;;;10270580;28;20031;-60
2023/01/25 20:37:05;;;;;;;35.28;12.73;;;4.90;99.90;;;;;;10267604;28;20448;-60
2023/01/25 20:42:05;;;;;;;35.13;13.18;;;4.90;99.90;;;;;;10272735;28;20507;-60
2023/01/25 20:47:06;;;;;;;37.97;13.45;;;4.90;99.90;;;;;;10275612;28;20035;-60
2023/01/25 20:52:11;;;;;;;38.42;13.48;;;4.80;99.90;;;;;;10263652;28;20138;-60
2023/01/25 20:57:12;;;;;;;39.10;14.23;;;4.90;99.90;;;;;;10273621;28;20498;-61
2023/01/25 21:02:12;;;;;;;32.47;12.73;;;4.80;99.90;;;;;;10263188;28;20031;-61
2023/01/25 21:07:13;;;;;;;34.55;12.80;;;4.80;99.90;;;;;;10268420;28;20035;-60
2023/01/25 21:12:14;;;;;;;40.50;13.52;;;4.80;99.90;;;;;;10262396;28;20424;-61
2023/01/25 21:17:14;;;;;;;36.67;13.90;;;4.80;99.90;;;;;;10259307;28;20111;-61
2023/01/25 21:22:15;;;;;;;37.58;12.95;;;4.80;99.90;;;;;;10259954;28;20527;-61
2023/01/25 21:27:16;;;;;;;37.13;13.68;;;4.80;99.90;;;;;;10253674;28;20448;-61
2023/01/25 21:32:16;;;;;;;36.53;13.25;;;4.80;99.90;;;;;;10261001;28;20028;-61
2023/01/25 21:37:17;;;;;;;34.10;12.27;;;4.80;99.90;;;;;;10253876;28;20117;-60
2023/01/25 21:42:17;;;;;;;35.97;12.38;;;4.80;99.90;;;;;;10266918;28;20029;-60
2023/01/25 21:47:18;;;;;;;33.05;12.40;;;4.80;99.90;;;;;;10271698;28;20121;-61
2023/01/25 21:52:18;;;;;;;37.15;12.63;;;4.80;99.90;;;;;;10271612;28;20299;-61
2023/01/25 21:57:19;;;;;;;32.42;12.02;;;4.80;99.90;;;;;;10269324;28;20388;-60
2023/01/25 22:02:20;;;;;;;33.88;11.23;;;4.80;99.90;;;;;;10270753;28;20034;-60
2023/01/25 22:07:21;;;;;;;35.65;12.43;;;4.80;99.90;;;;;;10269190;28;20038;-60
2023/01/25 22:12:22;;;;;;;32.15;11.15;;;4.80;99.90;;;;;;10271022;28;20503;-61
2023/01/25 22:17:24;;;;;;;38.28;12.40;;;4.80;99.90;;;;;;10272209;28;20179;-61
2023/01/25 22:22:25;;;;;;;31.90;11.60;;;4.80;99.90;;;;;;10262245;28;20121;-61
2023/01/25 22:27:26;;;;;;;35.50;12.68;;;4.80;99.90;;;;;;10271319;28;20111;-61
2023/01/25 22:32:27;;;;;;;34.28;12.40;;;4.70;99.90;;;;;;10272844;28;20109;-61
2023/01/25 22:37:28;;;;;;;32.33;10.85;;;4.80;99.90;;;;;;10275012;28;20293;-61
2023/01/25 22:42:28;;;;;;;28.88;11.30;;;4.80;99.90;;;;;;10270220;28;20042;-61
2023/01/25 22:47:29;;;;;;;30.15;10.48;;;4.80;99.90;;;;;;10270848;28;20027;-61
2023/01/25 22:52:29;;;;;;;30.73;10.75;;;4.80;99.90;;;;;;10268944;28;20023;-61
2023/01/25 22:57:30;;;;;;;30.27;10.63;;;4.80;99.90;;;;;;10266025;28;20022;-61
2023/01/25 23:02:30;;;;;;;27.50;10.40;;;4.80;99.90;;;;;;10270226;28;20546;-61
2023/01/25 23:07:31;;;;;;;32.78;11.45;;;4.70;99.90;;;;;;10275684;28;20011;-62
2023/01/25 23:12:32;;;;;;;27.70;10.20;;;4.80;99.90;;;;;;10273355;28;20035;-61
2023/01/25 23:22:52;;;;;;;28.38;9.98;;;4.80;99.90;;;;;;10277012;28;20454;-61
2023/01/25 23:27:52;;;;;;;22.98;9.27;;;4.80;99.90;;;;;;10273667;28;20102;-61
2023/01/25 23:32:53;;;;;;;28.38;10.55;;;4.80;99.90;;;;;;10271176;28;20022;-60
2023/01/25 23:37:54;;;;;;;26.35;10.25;;;4.80;99.90;;;;;;10278477;28;20030;-61
2023/01/25 23:42:56;;;;;;;23.50;9.35;;;4.80;99.90;;;;;;10276727;28;20476;-61
2023/01/25 23:47:57;;;;;;;30.10;11.27;;;4.80;99.90;;;;;;10278417;28;20027;-61
2023/01/25 23:52:57;;;;;;;27.85;9.90;;;4.80;99.90;;;;;;10275558;28;20460;-61
2023/01/25 23:57:58;;;;;;;27.02;10.63;;;4.80;99.90;;;;;;10274944;28;20498;-61
